This is the latest recevied weather packets stored in our database for station/object KK4WXG. If no packets are shown the sender has not sent any weather packets the latest 10 day(s).
| Time | Temp. | Humidity | Pressure | Rain* | Wind** | Luminosity | Snow |
|---|---|---|---|---|---|---|---|
| 1777562993 | 16.67° C | 53% | 1009.2 hPa | 0 mm | - | 917 W/m² | - |
| 1777562689 | 16.11° C | 58% | 1009.1 hPa | 0 mm | - | 967 W/m² | - |
| 1777561173 | 16.11° C | 55% | 1009.1 hPa | 0 mm | - | 320 W/m² | - |
| 1777560566 | 16.67° C | 59% | 1009 hPa | 0 mm | - | 865 W/m² | - |
| 1777560264 | 16.67° C | 57% | 1009.2 hPa | 0 mm | - | 850 W/m² | - |
| 1777558750 | 15.56° C | 58% | 1009.6 hPa | 0 mm | - | 894 W/m² | - |
| 1777557839 | 16.11° C | 60% | 1009.2 hPa | 0 mm | - | 698 W/m² | - |
| 1777556624 | 15.56° C | 62% | 1009.3 hPa | 0 mm | - | 598 W/m² | - |
| 1777553897 | 15° C | 68% | 1008.8 hPa | 0 mm | - | 440 W/m² | - |
| 1777551169 | 14.44° C | 68% | 1008.8 hPa | 0 mm | - | 261 W/m² | - |
| 1777550867 | 14.44° C | 70% | 1008.8 hPa | 0 mm | - | 241 W/m² | - |
| 1777550259 | 14.44° C | 71% | 1008.7 hPa | 0 mm | - | 200 W/m² | - |
| 1777547528 | 12.22° C | 80% | 1008.6 hPa | 0 mm | - | 44 W/m² | - |
| 1777547226 | 12.22° C | 80% | 1008.8 hPa | 0 mm | - | 45 W/m² | - |
| 1777545406 | 11.67° C | 87% | 1008.4 hPa | 0 mm | - | 15 W/m² | - |
| 1777545103 | 11.11° C | 87% | 1008.1 hPa | 0 mm | - | 10 W/m² | - |
| 1777544800 | 11.11° C | 89% | 1008 hPa | 0 mm | - | 7 W/m² | - |
| 1777544496 | 11.11° C | 88% | 1007.9 hPa | 0 mm | - | 5 W/m² | - |
| 1777544192 | 11.11° C | 88% | 1007.6 hPa | 0 mm | - | 3 W/m² | - |
| 1777543890 | 11.67° C | 87% | 1007.6 hPa | 0 mm | - | 2 W/m² | - |
| 1777543586 | 11.67° C | 86% | 1007.8 hPa | 0 mm | - | 1 W/m² | - |
| 1777542978 | 11.67° C | 85% | 1007.6 hPa | 0 mm | - | 0 W/m² | - |
| 1777542675 | 11.67° C | 85% | 1007.7 hPa | 0 mm | - | 0 W/m² | - |
| 1777542371 | 12.22° C | 84% | 1007.7 hPa | 0 mm | - | 0 W/m² | - |
| 1777541765 | 12.22° C | 83% | 1007.7 hPa | 0 mm | - | 0 W/m² | - |
* Rain latest hour (hover to see other rain measurements)
** Current wind speed in m/s (hover to see current wind gust speed)